Aérodrome :
LOGIN :

S'inscrire | Disclaimer

   EN    FR    IT 

 










Légende :    VFR   VFR Marginal   IFR   IFR Intensif   IFR Très Intensif
Visi : 
Plafond : 
>= 8 km
>= 3000ft
5 à 8 km
1000 à 3000 ft
1500m à 5 km
500 à 1000 ft
800 à 1500m
200 à 500 ft
< 800m
< 200 ft
Symboles :   Orages  Brouillard  Fortes neiges  Fortes précipitations  Vent > 20 kt
SIGMETs :   Divers  Orages  Givrage  Turbulence  Onde Orograph.  Cendres Volcan.






- Altitude de l'aérodrome : 915 ft
- Code IATA : LUG


LSZA - Lugano

DERNIER METAR :
  • 021750Z AUTO VRB02KT 9999 FEW075 28/18 Q1018

METARs EXPIRÉS :
  • 021720Z AUTO 28004KT 240V320 9999 NCD 30/17 Q1018
  • 021650Z AUTO 28004KT 210V300 9999 NCD 30/17 Q1018
  • 021620Z AUTO 28005KT 250V310 9999 SCT100 31/17 Q1018
  • 021550Z VRB03KT 9999 FEW090 31/17 Q1018 NOSIG
  • 021520Z VRB03KT 9999 SCT070 31/17 Q1019
  • 021450Z 20005KT 170V250 9999 SCT090 32/17 Q1019 NOSIG

TAF TAF LSZA
Valide du 02 à 15h jusqu'au 03 à 00h UTC


021425Z 0215/0224 20004KT 9999 FEW070
ATIS : +41 22 417 40 88



MET'MAP, la Météo Aéronautique d'un coup d'oeil ! - Copyright ORBIFLY Décembre 2007 - Disclaimer

ORBIFLY MET'MAP TEAM :

Programmation & Développement : Alexandra Zaïnal
Sur une idée originale de : Baudouin d'Aumeries
Soutien technique & logistique : Manuel Goepfert
Assistance : Marc-Olivier Méhu




SOURCES & CREDITS :

   NOAA